Flight Track Log - Related Links

Times and Time Zones

All times are in EDT time to prevent confusion due to time zone crossing. See the N830QS flight status page for this flight to view local times or setup timezone preferences in your user account.

Time Position Orientation Groundspeed Altitude Reporting Facility
EDT Latitude Longitude Course Direction KTS MPH feet Rate Location/Type
Sat 04:21:32 PM 29.5511 -98.4989 318° Northwest 196 226 2,200  Level Houston Center
Sat 04:22:32 PM 29.6044 -98.5550 318° Northwest 279 321 6,000 3,761 Climbing Houston Center
Sat 04:22:39 PM 29.6094 -98.5578 334° Northwest 262 302 6,400 4,174 Climbing Houston Center
Sat 04:23:41 PM 29.6683 -98.6092 323° Northwest 267 307 10,800 3,339 Climbing Houston Center
Sat 04:24:43 PM 29.7356 -98.6683 323° Northwest 285 328 13,300 2,244 Climbing Houston Center
Sat 04:25:44 PM 29.8058 -98.7308 322° Northwest 316 364 15,400 1,902 Climbing Houston Center
Sat 04:26:46 PM 29.8811 -98.7983 322° Northwest 341 392 17,200 1,790 Climbing Houston Center
Sat 04:27:48 PM 29.9503 -98.8922 310° West 354 407 19,100 1,742 Climbing Houston Center
Sat 04:28:50 PM 30.0119 -98.9800 309° West 353 406 20,800 1,306 Climbing Houston Center
Sat 04:29:52 PM 30.0814 -99.0778 309° West 364 419 21,800 927 Climbing Houston Center
Sat 04:30:53 PM 30.1225 -99.1631 299° West 370 426 22,700 976 Climbing Houston Center
Sat 04:31:55 PM 30.1581 -99.2972 287° West 367 422 23,800 1,016 Climbing Houston Center
Sat 04:32:57 PM 30.1903 -99.4103 288° West 370 426 24,800 1,016 Climbing Houston Center
Sat 04:33:59 PM 30.2208 -99.5233 287° West 371 427 25,900 1,024 Climbing Houston Center
Sat 04:35:00 PM 30.2508 -99.6339 287° West 364 419 26,900 976 Climbing Houston Center
Sat 04:36:02 PM 30.2800 -99.7436 287° West 360 414 27,900 919 Climbing Houston Center
Sat 04:37:04 PM 30.3086 -99.8528 287° West 357 411 28,800 1,024 Climbing Houston Center
Sat 04:38:05 PM 30.3428 -99.9811 287° West 351 404 30,000 1,073 Climbing Houston Center
Sat 04:39:07 PM 30.3708 -100.0875 287° West 349 402 31,000 968 Climbing Houston Center
Sat 04:40:09 PM 30.3986 -100.1925 287° West 346 398 32,000 968 Climbing Houston Center
Sat 04:41:11 PM 30.4244 -100.2975 286° West 344 396 33,000 829 Climbing Houston Center
Sat 04:42:12 PM 30.4517 -100.4025 287° West 344 396 33,700 488 Climbing Houston Center
Sat 04:43:14 PM 30.4792 -100.5108 286° West 350 403 34,000 145 Climbing Houston Center
Sat 04:44:16 PM 30.5133 -100.6439 287° West 361 415 34,000  Level Houston Center
Sat 04:45:18 PM 30.5428 -100.7572 287° West 366 421 34,000  Level Houston Center
Sat 04:46:19 PM 30.5708 -100.8700 286° West 367 422 34,000  Level Houston Center
Sat 04:47:21 PM 30.5989 -100.9828 286° West 365 420 34,000  Level Houston Center
Sat 04:48:23 PM 30.6283 -101.0958 287° West 365 420 34,000  Level Houston Center
Sat 04:49:25 PM 30.6558 -101.2100 286° West 367 422 34,000  Level Houston Center
Sat 04:50:26 PM 30.6900 -101.3453 286° West 366 421 34,000  Level Houston Center
Sat 04:51:28 PM 30.7181 -101.4583 286° West 364 419 34,000  Level Houston Center
Sat 04:52:30 PM 30.7481 -101.5706 287° West 365 420 34,000  Level Houston Center
Sat 04:53:32 PM 30.7728 -101.6792 285° West 367 422 34,000  Level Houston Center
Sat 04:54:33 PM 30.8003 -101.7922 286° West 366 421 34,000  Level Houston Center
Sat 04:55:35 PM 30.8300 -101.9067 287° West 367 422 34,000  Level Houston Center
Sat 04:56:37 PM 30.8628 -102.0444 286° West 367 422 34,000  Level Houston Center
Sat 04:57:38 PM 30.8919 -102.1597 286° West 369 425 34,000  Level Houston Center
Sat 04:58:40 PM 30.9183 -102.2758 285° West 369 425 34,000  Level Houston Center
Sat 04:59:42 PM 30.9469 -102.3928 286° West 371 427 34,000  Level Houston Center
Sat 05:00:44 PM 30.9747 -102.5094 286° West 371 427 34,000  Level Houston Center
Sat 05:01:45 PM 31.0028 -102.6256 286° West 371 427 34,000  Level Houston Center
Sat 05:02:47 PM 31.0300 -102.7431 285° West 371 427 34,000  Level Houston Center
Sat 05:03:49 PM 31.0581 -102.8606 286° West 374 430 34,000  Level Houston Center
Sat 05:04:51 PM 31.0856 -102.9789 285° West 376 433 34,000  Level Houston Center
Sat 05:05:52 PM 31.1197 -103.1214 286° West 378 435 34,000  Level Houston Center
Sat 05:06:54 PM 31.1467 -103.2417 285° West 382 440 34,000  Level Houston Center
Sat 05:07:56 PM 31.1744 -103.3622 285° West 384 442 34,000  Level Houston Center
Sat 05:09:25 PM 31.2142 -103.5322 285° West 386 444 34,000  Level Albuquerque Center
Sat 05:10:26 PM 31.2428 -103.6550 285° West 388 447 34,000  Level Albuquerque Center
Sat 05:11:28 PM 31.2708 -103.7775 285° West 388 447 34,000  Level Albuquerque Center
Sat 05:12:29 PM 31.3072 -103.9267 286° West 394 453 34,000  Level Albuquerque Center
Sat 05:13:31 PM 31.3356 -104.0503 285° West 396 456 34,000  Level Albuquerque Center
Sat 05:14:33 PM 31.3631 -104.1747 285° West 397 457 34,000  Level Albuquerque Center
Sat 05:15:34 PM 31.3911 -104.2983 285° West 396 456 34,000  Level Albuquerque Center
Sat 05:16:36 PM 31.4186 -104.4222 285° West 396 456 34,000  Level Albuquerque Center
Sat 05:17:37 PM 31.4461 -104.5464 285° West 396 456 34,000  Level Albuquerque Center
Sat 05:18:39 PM 31.4731 -104.6717 284° West 395 455 34,000  Level Albuquerque Center
Sat 05:19:41 PM 31.5053 -104.8183 284° West 395 455 34,000  Level Albuquerque Center
Sat 05:20:42 PM 31.5319 -104.9433 284° West 398 458 34,000  Level Albuquerque Center
Sat 05:21:44 PM 31.5606 -105.0678 285° West 399 459 34,000  Level Albuquerque Center
Sat 05:22:46 PM 31.5864 -105.1914 284° West 396 456 34,000  Level Albuquerque Center
Sat 05:23:47 PM 31.6136 -105.3164 284° West 397 457 34,000  Level Albuquerque Center
Sat 05:24:49 PM 31.6397 -105.4422 284° West 398 458 34,000  Level Albuquerque Center
Sat 05:25:50 PM 31.6714 -105.5922 284° West 397 457 34,000  Level Albuquerque Center
Sat 05:26:52 PM 31.6981 -105.7161 284° West 394 453 34,000  Level Albuquerque Center
Sat 05:27:54 PM 31.7236 -105.8406 284° West 394 453 34,000  Level Albuquerque Center
Sat 05:28:55 PM 31.7497 -105.9664 284° West 397 457 34,000  Level Albuquerque Center
Sat 05:29:57 PM 31.7767 -106.0906 284° West 395 455 34,000  Level Albuquerque Center
Sat 05:30:59 PM 31.8031 -106.2142 284° West 393 452 34,000  Level Albuquerque Center
Sat 05:32:00 PM 31.8231 -106.3397 281° West 393 452 34,000  Level Albuquerque Center
Sat 05:33:02 PM 31.8308 -106.4961 273° West 396 456 34,000  Level Albuquerque Center
Sat 05:34:04 PM 31.8419 -106.6239 276° West 395 455 34,000  Level Albuquerque Center
Sat 05:35:05 PM 31.8522 -106.7522 275° West 393 452 34,000  Level Albuquerque Center
Sat 05:36:07 PM 31.8617 -106.8825 275° West 398 458 34,000  Level Albuquerque Center
Sat 05:37:09 PM 31.8703 -107.0114 275° West 395 455 34,000  Level Albuquerque Center
Sat 05:38:10 PM 31.8797 -107.1403 275° West 394 453 34,000  Level Albuquerque Center
Sat 05:39:12 PM 31.8883 -107.2725 274° West 401 461 34,000  Level Albuquerque Center
Sat 05:40:14 PM 31.8972 -107.4047 275° West 403 464 34,000  Level Albuquerque Center
Sat 05:41:15 PM 31.9186 -107.5597 279° West 402 463 34,000  Level Albuquerque Center
Sat 05:42:17 PM 31.9461 -107.6892 284° West 405 466 34,000  Level Albuquerque Center
Sat 05:43:19 PM 31.9731 -107.8172 284° West 404 465 34,000  Level Albuquerque Center
Sat 05:44:20 PM 32.0000 -107.9456 284° West 403 464 34,000  Level Albuquerque Center
Sat 05:45:22 PM 32.0267 -108.0739 284° West 403 464 34,000  Level Albuquerque Center
Sat 05:46:24 PM 32.0531 -108.2033 284° West 404 465 34,000  Level Albuquerque Center
Sat 05:47:25 PM 32.0800 -108.3319 284° West 404 465 34,000 -439 Level Albuquerque Center
Sat 05:48:27 PM 32.1081 -108.4653 284° West 408 470 33,100 -919 Descending Albuquerque Center
Sat 05:49:29 PM 32.1344 -108.5953 284° West 409 471 32,100 -976 Descending Albuquerque Center
Sat 05:50:30 PM 32.1619 -108.7314 283° West 418 481 31,100 -1,024 Descending Albuquerque Center
Sat 05:51:32 PM 32.1944 -108.8933 283° West 422 486 30,000 -537 Descending Albuquerque Center
Sat 05:52:33 PM 32.2219 -109.0289 284° West 423 487 30,000  Level Albuquerque Center
Sat 05:53:35 PM 32.2489 -109.1672 283° West 428 493 30,000  Level Albuquerque Center
Sat 05:54:37 PM 32.2792 -109.3058 285° West 432 497 30,000  Level Albuquerque Center
Sat 05:55:38 PM 32.3117 -109.4408 286° West 429 494 30,000  Level Albuquerque Center
Sat 05:56:39 PM 32.3453 -109.5758 286° West 427 491 30,000  Level Albuquerque Center
Sat 05:57:41 PM 32.3772 -109.7117 286° West 427 491 30,000  Level Albuquerque Center
Sat 05:58:42 PM 32.4117 -109.8489 287° West 432 497 30,000  Level Albuquerque Center
Sat 05:59:44 PM 32.4439 -109.9839 286° West 429 494 30,000  Level Albuquerque Center
Sat 06:00:46 PM 32.4833 -110.1469 286° West 429 494 30,000 -439 Level Albuquerque Center
Sat 06:01:47 PM 32.5161 -110.2817 286° West 426 490 29,100 -1,525 Descending Albuquerque Center
Sat 06:02:48 PM 32.5469 -110.4167 285° West 429 494 26,900 -2,146 Descending Albuquerque Center
Sat 06:03:50 PM 32.5775 -110.5478 285° West 420 483 24,700 -1,854 Descending Albuquerque Center
Sat 06:04:51 PM 32.6250 -110.6619 296° West 396 456 23,100 -1,512 Descending Albuquerque Center
Sat 06:05:53 PM 32.6842 -110.7669 304° West 386 444 21,600 -1,415 Descending Albuquerque Center
Sat 06:06:54 PM 32.7392 -110.8719 302° West 379 436 20,200 -1,317 Descending Albuquerque Center
Sat 06:07:56 PM 32.7944 -110.9719 303° West 367 422 18,900 -1,415 Descending Albuquerque Center
Sat 06:08:57 PM 32.8556 -111.0922 301° West 357 411 17,300 -1,415 Descending Albuquerque Center
Sat 06:09:59 PM 32.9036 -111.1878 301° West 343 395 16,000 -1,268 Descending Albuquerque Center
Sat 06:11:00 PM 32.9472 -111.2839 298° West 331 381 14,700 -1,220 Descending Albuquerque Center
Sat 06:12:02 PM 32.9906 -111.3764 299° West 321 369 13,500 -1,122 Descending Albuquerque Center
Sat 06:13:03 PM 33.0328 -111.4631 300° West 304 350 12,400 -1,082 Descending Albuquerque Center
Sat 06:14:04 PM 33.0747 -111.5433 302° West 288 331 11,300 -1,073 Descending Albuquerque Center
Sat 06:15:06 PM 33.1431 -111.5956 327° Northwest 294 338 10,200 -1,024 Descending Albuquerque Center
Sat 06:16:07 PM 33.2067 -111.6306 335° Northwest 254 292 9,200 -1,024 Descending Albuquerque Center
Sat 06:17:09 PM 33.2658 -111.6661 333° Northwest 239 275 8,100 -1,268 Descending Albuquerque Center
Sat 06:18:10 PM 33.3408 -111.7092 334° Northwest 240 276 6,600 -1,366 Descending Albuquerque Center
Sat 06:19:12 PM 33.3892 -111.7528 323° Northwest 229 264 5,300 -1,268 Descending Albuquerque Center
Sat 06:20:13 PM 33.4211 -111.8156 301° West 221 254 4,000 -1,180 Descending Albuquerque Center
Sat 06:21:14 PM 33.4311 -111.8733 282° West 179 206 2,900 -1,020 Descending Albuquerque Center
Sat 06:21:53 PM 33.4333 -111.9000 276° West 153 176 2,300 -629 Descending Phoenix TRACON
Sat 06:22:59 PM 33.4333 -111.9500 270° West 123 142 1,800 -455 Descending Phoenix TRACON
Sat 06:26:00 PM 33.4343 -112.0116 271° West  Level Estimated

Login

Don't have an account? Register now (free) for customized features, flight alerts, and more!